createdAt,value
2023-03-11T00:01:21.287Z,1005.5
2023-03-11T00:06:21.331Z,1005.6
2023-03-11T00:11:21.282Z,1005.6
2023-03-11T00:16:21.390Z,1005.5
2023-03-11T00:21:21.287Z,1005.5
2023-03-11T00:26:21.335Z,1005.5
2023-03-11T00:31:21.364Z,1005.5
2023-03-11T00:36:21.370Z,1005.6
2023-03-11T00:41:21.300Z,1005.6
2023-03-11T00:46:21.403Z,1005.6
2023-03-11T00:51:21.288Z,1005.6
2023-03-11T00:56:21.337Z,1005.6
2023-03-11T01:01:21.396Z,1005.6
2023-03-11T01:06:21.341Z,1005.6
2023-03-11T01:11:21.287Z,1005.6
2023-03-11T01:16:21.489Z,1005.5
2023-03-11T01:21:21.284Z,1005.5
2023-03-11T01:26:21.350Z,1005.4
2023-03-11T01:31:21.410Z,1005.4
2023-03-11T01:36:21.332Z,1005.4
2023-03-11T01:41:21.268Z,1005.4
2023-03-11T01:46:21.404Z,1005.4
2023-03-11T01:51:21.271Z,1005.4
2023-03-11T01:56:21.384Z,1005.4
2023-03-11T02:01:21.284Z,1005.4
2023-03-11T02:06:21.348Z,1005.3
2023-03-11T02:11:21.282Z,1005.3
2023-03-11T02:16:21.427Z,1005.3
2023-03-11T02:21:21.296Z,1005.4
2023-03-11T02:26:21.361Z,1005.4
2023-03-11T02:31:21.361Z,1005.3
2023-03-11T02:36:21.360Z,1005.3
2023-03-11T02:41:21.305Z,1005.2
2023-03-11T02:46:21.387Z,1005.2
2023-03-11T02:51:21.295Z,1005.2
2023-03-11T02:56:21.348Z,1005.2
2023-03-11T03:01:21.310Z,1005.2
2023-03-11T03:06:21.349Z,1005.2
2023-03-11T03:11:21.291Z,1005.3
2023-03-11T03:16:21.452Z,1005.3
2023-03-11T03:21:21.285Z,1005.3
2023-03-11T03:26:21.356Z,1005.2
2023-03-11T03:31:21.361Z,1005.2
2023-03-11T03:36:21.358Z,1005.2
2023-03-11T03:41:21.289Z,1005.2
2023-03-11T03:46:21.457Z,1005.2
2023-03-11T03:51:21.295Z,1005.2
2023-03-11T03:56:21.352Z,1005.2
2023-03-11T04:01:21.303Z,1005.2
2023-03-11T04:06:21.367Z,1005.2
2023-03-11T04:11:21.293Z,1005.2
2023-03-11T04:16:21.524Z,1005.3
2023-03-11T04:21:21.310Z,1005.3
2023-03-11T04:26:21.358Z,1005.3
2023-03-11T04:31:21.353Z,1005.4
2023-03-11T04:36:21.382Z,1005.5
2023-03-11T04:41:21.300Z,1005.5
2023-03-11T04:46:21.376Z,1005.6
2023-03-11T04:51:21.313Z,1005.7
2023-03-11T04:56:21.352Z,1005.7
2023-03-11T05:01:21.351Z,1005.7
2023-03-11T05:06:21.353Z,1005.8
2023-03-11T05:11:21.305Z,1005.9
2023-03-11T05:16:21.425Z,1005.9
2023-03-11T05:21:21.302Z,1005.9
2023-03-11T05:26:21.348Z,1005.9
2023-03-11T05:31:21.332Z,1005.9
2023-03-11T05:36:21.394Z,1005.9
2023-03-11T05:41:21.305Z,1005.8
2023-03-11T05:46:21.433Z,1005.7
2023-03-11T05:51:21.334Z,1005.8
2023-03-11T05:56:21.362Z,1005.9
2023-03-11T06:01:21.320Z,1006.0
2023-03-11T06:06:21.403Z,1006.1
2023-03-11T06:11:21.317Z,1006.1
2023-03-11T06:16:21.396Z,1006.1
2023-03-11T06:21:21.306Z,1006.1
2023-03-11T06:26:21.402Z,1006.2
2023-03-11T06:31:21.389Z,1006.2
2023-03-11T06:36:21.363Z,1006.2
2023-03-11T06:41:21.309Z,1006.2
2023-03-11T06:46:21.425Z,1006.1
2023-03-11T06:51:21.313Z,1006.2
2023-03-11T06:56:21.363Z,1006.1
2023-03-11T07:01:21.395Z,1006.1
2023-03-11T07:06:21.361Z,1006.1
2023-03-11T07:11:21.309Z,1006.1
2023-03-11T07:16:21.488Z,1006.0
2023-03-11T07:21:21.336Z,1006.0
2023-03-11T07:26:21.365Z,1006.0
2023-03-11T07:31:21.371Z,1006.1
2023-03-11T07:36:21.933Z,1006.1
2023-03-11T07:41:21.891Z,1006.1
2023-03-11T07:46:21.909Z,1006.1
2023-03-11T07:51:21.301Z,1006.2
2023-03-11T07:56:21.408Z,1006.1
2023-03-11T08:01:21.316Z,1006.1
2023-03-11T08:06:21.379Z,1006.2
2023-03-11T08:11:21.312Z,1006.3
2023-03-11T08:16:21.402Z,1006.3
2023-03-11T08:21:21.312Z,1006.4
2023-03-11T08:26:21.402Z,1006.5
2023-03-11T08:31:21.379Z,1006.5
2023-03-11T08:36:21.381Z,1006.5
2023-03-11T08:41:21.328Z,1006.5
2023-03-11T08:46:21.383Z,1006.4
2023-03-11T08:51:21.321Z,1006.5
2023-03-11T08:56:21.512Z,1006.4
2023-03-11T09:01:21.313Z,1006.4
2023-03-11T09:06:21.402Z,1006.4
2023-03-11T09:11:21.319Z,1006.4
2023-03-11T09:16:21.442Z,1006.4
2023-03-11T09:21:21.338Z,1006.3
2023-03-11T09:26:21.424Z,1006.4
2023-03-11T09:31:21.396Z,1006.3
2023-03-11T09:36:21.388Z,1006.3
2023-03-11T09:41:21.329Z,1006.4
2023-03-11T09:46:21.413Z,1006.4
2023-03-11T09:51:21.311Z,1006.5
2023-03-11T09:56:21.388Z,1006.4
2023-03-11T10:01:21.315Z,1006.4
2023-03-11T10:06:21.387Z,1006.4
2023-03-11T10:11:21.306Z,1006.4
2023-03-11T10:16:21.452Z,1006.4
2023-03-11T10:21:22.082Z,1006.4
2023-03-11T10:26:21.397Z,1006.4
2023-03-11T10:31:21.372Z,1006.4
2023-03-11T10:36:21.430Z,1006.4
2023-03-11T10:41:21.353Z,1006.4
2023-03-11T10:46:21.438Z,1006.4
2023-03-11T10:51:21.345Z,1006.4
2023-03-11T10:56:21.405Z,1006.3
2023-03-11T11:01:21.397Z,1006.2
2023-03-11T11:06:21.447Z,1006.2
2023-03-11T11:11:21.462Z,1006.2
2023-03-11T11:16:21.571Z,1006.2
2023-03-11T11:21:21.360Z,1006.2
2023-03-11T11:26:21.536Z,1006.2
2023-03-11T11:31:21.382Z,1006.1
2023-03-11T11:36:21.481Z,1006.1
2023-03-11T11:41:21.378Z,1006.0
2023-03-11T11:46:21.548Z,1006.0
2023-03-11T11:51:21.387Z,1006.0
2023-03-11T11:56:21.433Z,1006.0
2023-03-11T12:01:21.374Z,1005.9
2023-03-11T12:06:21.473Z,1005.9
2023-03-11T12:11:21.373Z,1005.9
2023-03-11T12:16:21.475Z,1006.0
2023-03-11T12:21:21.383Z,1006.0
2023-03-11T12:26:21.455Z,1006.0
2023-03-11T12:31:21.426Z,1006.0
2023-03-11T12:36:21.468Z,1006.0
2023-03-11T12:41:21.374Z,1006.0
2023-03-11T12:46:21.468Z,1005.8
2023-03-11T12:51:21.384Z,1005.9
2023-03-11T12:56:21.559Z,1005.9
2023-03-11T13:01:21.441Z,1005.8
2023-03-11T13:06:21.574Z,1005.7
2023-03-11T13:11:21.431Z,1005.7
2023-03-11T13:16:21.640Z,1005.8
2023-03-11T13:21:21.436Z,1005.7
2023-03-11T13:26:21.538Z,1005.6
2023-03-11T13:31:21.532Z,1005.6
2023-03-11T13:36:21.547Z,1005.5
2023-03-11T13:41:21.442Z,1005.4
2023-03-11T13:46:21.603Z,1005.5
2023-03-11T13:51:21.494Z,1005.4
2023-03-11T13:56:21.576Z,1005.3
2023-03-11T14:01:21.592Z,1005.3
2023-03-11T14:06:21.626Z,1005.3
2023-03-11T14:11:21.480Z,1005.2
2023-03-11T14:16:21.614Z,1005.2
2023-03-11T14:21:21.481Z,1005.2
2023-03-11T14:26:21.573Z,1005.2
2023-03-11T14:31:21.554Z,1005.2
2023-03-11T14:36:21.582Z,1005.1
2023-03-11T14:41:21.490Z,1005.1
2023-03-11T14:46:21.702Z,1005.1
2023-03-11T14:51:21.474Z,1005.1
2023-03-11T14:56:21.581Z,1005.0
2023-03-11T15:01:21.597Z,1005.1
2023-03-11T15:06:21.549Z,1004.9
2023-03-11T15:11:21.495Z,1005.0
2023-03-11T15:16:21.621Z,1004.9
2023-03-11T15:21:21.496Z,1004.8
2023-03-11T15:26:21.594Z,1004.8
2023-03-11T15:31:21.526Z,1004.7
2023-03-11T15:36:21.549Z,1004.7
2023-03-11T15:41:21.484Z,1004.7
2023-03-11T15:46:21.689Z,1004.6
2023-03-11T15:51:21.487Z,1004.5
2023-03-11T15:56:21.600Z,1004.5
2023-03-11T16:01:21.502Z,1004.4
2023-03-11T16:06:21.554Z,1004.5
2023-03-11T16:11:21.524Z,1004.4
2023-03-11T16:16:21.668Z,1004.4
2023-03-11T16:21:21.531Z,1004.5
2023-03-11T16:26:21.575Z,1004.5
2023-03-11T16:31:21.619Z,1004.4
2023-03-11T16:36:21.633Z,1004.5
2023-03-11T16:41:21.614Z,1004.5
2023-03-11T16:46:21.685Z,1004.5
2023-03-11T16:51:21.557Z,1004.4
2023-03-11T16:56:21.687Z,1004.3
2023-03-11T17:01:21.708Z,1004.2
2023-03-11T17:06:21.634Z,1004.3
2023-03-11T17:11:21.557Z,1004.3
2023-03-11T17:16:21.791Z,1004.3
2023-03-11T17:21:21.585Z,1004.4
2023-03-11T17:26:21.660Z,1004.4
2023-03-11T17:31:21.635Z,1004.4
2023-03-11T17:36:21.716Z,1004.5
2023-03-11T17:41:21.610Z,1004.5
2023-03-11T17:46:21.762Z,1004.5
2023-03-11T17:51:21.592Z,1004.4
2023-03-11T17:56:21.730Z,1004.3
2023-03-11T18:01:21.598Z,1004.3
2023-03-11T18:06:21.726Z,1004.3
2023-03-11T18:11:21.607Z,1004.3
2023-03-11T18:16:21.723Z,1004.2
2023-03-11T18:21:21.596Z,1004.2
2023-03-11T18:26:21.690Z,1004.2
2023-03-11T18:31:21.643Z,1004.2
2023-03-11T18:36:21.705Z,1004.2
2023-03-11T18:41:21.603Z,1004.2
2023-03-11T18:46:21.842Z,1004.2
2023-03-11T18:51:21.624Z,1004.2
2023-03-11T18:56:21.664Z,1004.1
2023-03-11T19:01:21.776Z,1004.0
2023-03-11T19:06:21.668Z,1003.9
2023-03-11T19:11:21.616Z,1003.8
2023-03-11T19:16:21.737Z,1003.7
2023-03-11T19:21:21.633Z,1003.8
2023-03-11T19:26:30.750Z,1003.7
2023-03-11T19:31:21.708Z,1003.8
2023-03-11T19:36:21.781Z,1003.7
2023-03-11T19:41:21.687Z,1003.8
2023-03-11T19:46:21.890Z,1003.8
2023-03-11T19:51:21.693Z,1003.8
2023-03-11T19:56:21.823Z,1003.7
2023-03-11T20:01:21.713Z,1003.6
2023-03-11T20:06:21.870Z,1003.6
2023-03-11T20:11:21.759Z,1003.6
2023-03-11T20:16:21.884Z,1003.6
2023-03-11T20:21:21.765Z,1003.6
2023-03-11T20:26:21.815Z,1003.6
2023-03-11T20:31:21.809Z,1003.6
2023-03-11T20:36:22.029Z,1003.6
2023-03-11T20:41:21.873Z,1003.4
2023-03-11T20:46:21.895Z,1003.4
2023-03-11T20:51:21.725Z,1003.3
2023-03-11T20:56:21.837Z,1003.3
2023-03-11T21:01:21.915Z,1003.3
2023-03-11T21:06:21.834Z,1003.3
2023-03-11T21:11:21.732Z,1003.2
2023-03-11T21:16:21.903Z,1003.2
2023-03-11T21:21:21.822Z,1003.1
2023-03-11T21:26:21.781Z,1003.0
2023-03-11T21:31:21.767Z,1002.8
2023-03-11T21:36:21.888Z,1002.7
2023-03-11T21:41:21.736Z,1002.6
2023-03-11T21:46:21.918Z,1002.5
2023-03-11T21:51:21.891Z,1002.5
2023-03-11T21:56:21.991Z,1002.5
2023-03-11T22:01:21.883Z,1002.3
2023-03-11T22:06:21.920Z,1002.1
2023-03-11T22:11:21.760Z,1002.1
2023-03-11T22:16:21.971Z,1002.1
2023-03-11T22:21:21.898Z,1002.0
2023-03-11T22:26:21.835Z,1001.9
2023-03-11T22:31:21.809Z,1001.8
2023-03-11T22:36:21.922Z,1001.5
2023-03-11T22:41:21.803Z,1001.5
2023-03-11T22:46:21.894Z,1001.4
2023-03-11T22:51:21.832Z,1001.3
2023-03-11T22:56:21.951Z,1001.2
2023-03-11T23:01:21.804Z,1001.1
2023-03-11T23:06:21.947Z,1001.0
2023-03-11T23:11:21.807Z,1000.9
2023-03-11T23:16:21.961Z,1000.9
2023-03-11T23:21:21.832Z,1000.9
2023-03-11T23:26:21.873Z,1000.8
2023-03-11T23:31:21.924Z,1000.8
2023-03-11T23:36:21.927Z,1000.8
2023-03-11T23:41:21.832Z,1000.7
2023-03-11T23:46:21.906Z,1000.7
2023-03-11T23:51:21.861Z,1000.6
2023-03-11T23:56:21.944Z,1000.5
